San Ygnacio, Texas
Current Conditions -  °F | °C
As of 9:55 AM on Saturday 25 Oct 2014 (Local Time) from KAPY Reporting Station
Clear Clear  
Wind Chill: 74°   Ceiling: Unl
Heat Index: 74°   Visibility: 10mi
Dew Point: 64°   Wind: 3mph
Humidity: 71%   Direction: 170°S
Pressure: 30.17"   Gusts: NA
Location:  27.04°N, 99.44°W
Report Text: KAPY 251455Z AUTO 17003KT 10SM CLR 23/17 A3017 RMK AO2 T02310175
Loading
Personal Weather Stations






























Interactive Weather Map New forecast layout! Learn more

10-Day Weather Forecast

Advertisements
Track Severe Weather on mobile